createdAt,value
2023-05-10T00:00:01.065Z,3.40
2023-05-10T00:03:05.992Z,3.05
2023-05-10T00:06:08.765Z,3.83
2023-05-10T00:09:12.003Z,3.35
2023-05-10T00:12:14.624Z,3.38
2023-05-10T00:15:17.208Z,3.38
2023-05-10T00:18:19.752Z,3.25
2023-05-10T00:21:22.952Z,3.20
2023-05-10T00:24:26.191Z,3.20
2023-05-10T00:27:28.834Z,3.70
2023-05-10T00:30:31.685Z,3.58
2023-05-10T00:33:35.351Z,3.72
2023-05-10T00:39:44.896Z,3.58
2023-05-10T00:42:47.616Z,3.50
2023-05-10T00:45:50.898Z,4.22
2023-05-10T00:48:54.034Z,3.65
2023-05-10T00:51:59.649Z,3.40
2023-05-10T00:55:04.411Z,3.90
2023-05-10T00:58:08.213Z,3.67
2023-05-10T01:01:11.869Z,3.70
2023-05-10T01:04:15.992Z,3.60
2023-05-10T01:07:19.372Z,3.88
2023-05-10T01:10:22.077Z,3.90
2023-05-10T01:13:35.856Z,3.78
2023-05-10T01:16:41.671Z,3.85
2023-05-10T01:19:45.792Z,3.78
2023-05-10T01:23:26.701Z,4.28
2023-05-10T01:27:18.322Z,3.78
2023-05-10T01:30:34.571Z,4.00
2023-05-10T01:34:06.448Z,4.38
2023-05-10T01:37:16.775Z,3.95
2023-05-10T01:40:43.282Z,4.00
2023-05-10T01:44:12.431Z,3.80
2023-05-10T01:47:22.619Z,4.07
2023-05-10T01:50:30.576Z,3.95
2023-05-10T01:53:38.523Z,4.55
2023-05-10T01:56:43.380Z,4.22
2023-05-10T01:59:49.190Z,4.00
2023-05-10T02:02:57.664Z,4.13
2023-05-10T02:06:02.871Z,3.90
2023-05-10T02:09:09.098Z,3.90
2023-05-10T02:12:14.335Z,4.13
2023-05-10T02:15:25.931Z,4.90
2023-05-10T02:18:28.757Z,3.97
2023-05-10T02:21:33.819Z,4.10
2023-05-10T02:24:39.453Z,4.25
2023-05-10T02:27:43.879Z,4.40
2023-05-10T02:30:48.721Z,4.07
2023-05-10T02:36:56.350Z,4.20
2023-05-10T02:40:00.684Z,4.35
2023-05-10T02:43:06.754Z,3.97
2023-05-10T02:46:10.526Z,3.63
2023-05-10T02:49:13.403Z,4.15
2023-05-10T02:52:20.462Z,4.18
2023-05-10T02:55:27.886Z,4.55
2023-05-10T02:58:30.497Z,4.32
2023-05-10T03:01:35.175Z,4.07
2023-05-10T03:04:40.249Z,4.00
2023-05-10T03:07:43.027Z,4.32
2023-05-10T03:11:00.429Z,4.70
2023-05-10T03:14:10.460Z,4.22
2023-05-10T03:17:25.816Z,4.30
2023-05-10T03:21:06.257Z,4.45
2023-05-10T03:24:12.959Z,4.40
2023-05-10T03:27:17.746Z,4.45
2023-05-10T03:30:21.099Z,4.95
2023-05-10T03:33:26.513Z,4.70
2023-05-10T03:36:29.731Z,4.32
2023-05-10T03:39:32.461Z,5.03
2023-05-10T03:42:36.940Z,4.55
2023-05-10T03:45:39.553Z,4.72
2023-05-10T03:48:43.683Z,4.75
2023-05-10T03:51:46.385Z,4.57
2023-05-10T03:54:49.249Z,4.75
2023-05-10T03:57:52.000Z,5.00
2023-05-10T04:00:54.771Z,4.60
2023-05-10T04:03:57.479Z,6.60
2023-05-10T04:07:00.261Z,4.68
2023-05-10T04:10:03.004Z,5.32
2023-05-10T04:13:05.622Z,5.22
2023-05-10T04:16:10.423Z,5.05
2023-05-10T04:19:13.052Z,5.30
2023-05-10T04:22:15.668Z,5.07
2023-05-10T04:25:18.193Z,6.15
2023-05-10T04:28:20.754Z,5.13
2023-05-10T04:31:25.200Z,4.97
2023-05-10T04:34:27.834Z,4.95
2023-05-10T04:37:31.944Z,5.55
2023-05-10T04:40:35.259Z,4.63
2023-05-10T04:43:38.607Z,5.40
2023-05-10T04:46:41.212Z,4.82
2023-05-10T04:49:44.473Z,5.30
2023-05-10T04:52:47.053Z,5.20
2023-05-10T04:55:50.015Z,5.38
2023-05-10T04:58:52.633Z,5.10
2023-05-10T05:01:55.261Z,5.53
2023-05-10T05:04:58.944Z,5.82
2023-05-10T05:08:01.822Z,6.00
2023-05-10T05:11:04.737Z,6.00
2023-05-10T05:14:07.276Z,5.05
2023-05-10T05:17:09.813Z,5.95
2023-05-10T05:20:12.843Z,5.95
2023-05-10T05:23:15.607Z,8.48
2023-05-10T05:26:18.135Z,5.10
2023-05-10T05:29:20.783Z,6.03
2023-05-10T05:32:24.622Z,6.03
2023-05-10T05:35:27.649Z,5.68
2023-05-10T05:38:30.293Z,5.68
2023-05-10T05:41:32.854Z,5.28
2023-05-10T05:44:36.945Z,5.68
2023-05-10T05:47:40.929Z,5.57
2023-05-10T05:50:43.740Z,6.43
2023-05-10T05:53:46.657Z,6.13
2023-05-10T05:56:49.204Z,5.32
2023-05-10T05:59:51.869Z,5.15
2023-05-10T06:02:54.598Z,5.82
2023-05-10T06:05:57.365Z,6.32
2023-05-10T06:09:00.410Z,8.55
2023-05-10T06:12:03.533Z,5.63
2023-05-10T06:15:08.668Z,4.97
2023-05-10T06:18:11.324Z,5.47
2023-05-10T06:21:13.888Z,5.78
2023-05-10T06:24:16.607Z,5.53
2023-05-10T06:27:19.137Z,5.80
2023-05-10T06:30:28.209Z,5.65
2023-05-10T06:33:31.148Z,6.35
2023-05-10T06:36:33.758Z,6.22
2023-05-10T06:39:37.846Z,6.18
2023-05-10T06:42:42.689Z,6.70
2023-05-10T06:45:49.229Z,10.48
2023-05-10T06:48:52.926Z,6.32
2023-05-10T06:51:59.379Z,6.47
2023-05-10T06:55:21.883Z,5.88
2023-05-10T06:58:24.423Z,5.75
2023-05-10T07:01:27.034Z,5.93
2023-05-10T07:04:30.138Z,5.80
2023-05-10T07:07:33.031Z,5.72
2023-05-10T07:10:35.659Z,6.03
2023-05-10T07:13:40.156Z,6.03
2023-05-10T07:16:43.294Z,5.35
2023-05-10T07:19:46.914Z,5.72
2023-05-10T07:22:49.432Z,5.50
2023-05-10T07:25:55.661Z,5.95
2023-05-10T07:28:58.163Z,4.70
2023-05-10T07:32:00.815Z,5.25
2023-05-10T07:35:04.413Z,5.40
2023-05-10T07:38:07.044Z,4.55
2023-05-10T07:41:09.619Z,4.82
2023-05-10T07:44:12.247Z,5.80
2023-05-10T07:47:15.660Z,5.50
2023-05-10T07:50:18.542Z,5.10
2023-05-10T07:53:22.512Z,4.63
2023-05-10T07:56:30.711Z,4.10
2023-05-10T07:59:34.313Z,4.43
2023-05-10T08:02:37.271Z,11.55
2023-05-10T08:05:39.891Z,5.22
2023-05-10T08:08:42.734Z,4.38
2023-05-10T08:11:45.494Z,4.18
2023-05-10T08:14:48.042Z,4.80
2023-05-10T08:17:50.530Z,4.53
2023-05-10T08:20:53.068Z,4.50
2023-05-10T08:23:55.890Z,4.60
2023-05-10T08:26:59.027Z,4.63
2023-05-10T08:30:02.816Z,5.78
2023-05-10T08:33:06.810Z,4.97
2023-05-10T08:39:26.805Z,3.90
2023-05-10T08:42:37.291Z,4.32
2023-05-10T08:45:44.327Z,4.50
2023-05-10T08:48:48.266Z,3.88
2023-05-10T08:51:57.666Z,3.95
2023-05-10T08:55:01.253Z,4.03
2023-05-10T08:58:04.984Z,4.55
2023-05-10T09:01:08.609Z,4.40
2023-05-10T09:04:11.602Z,3.90
2023-05-10T09:07:14.272Z,4.45
2023-05-10T09:10:17.270Z,4.13
2023-05-10T09:13:20.776Z,4.10
2023-05-10T09:16:24.416Z,4.68
2023-05-10T09:19:28.791Z,4.45
2023-05-10T09:22:32.818Z,6.38
2023-05-10T09:25:39.755Z,4.65
2023-05-10T09:28:57.011Z,4.22
2023-05-10T09:31:59.850Z,5.93
2023-05-10T09:35:08.096Z,5.00
2023-05-10T09:38:11.479Z,4.93
2023-05-10T09:41:24.172Z,4.43
2023-05-10T09:44:29.832Z,4.38
2023-05-10T09:47:37.097Z,4.57
2023-05-10T09:50:40.377Z,4.50
2023-05-10T09:53:42.865Z,4.30
2023-05-10T09:56:45.468Z,4.32
2023-05-10T09:59:48.579Z,4.05
2023-05-10T10:03:01.110Z,4.03
2023-05-10T10:06:15.977Z,3.85
2023-05-10T10:09:29.920Z,3.90
2023-05-10T10:12:32.733Z,4.13
2023-05-10T10:15:36.584Z,3.63
2023-05-10T10:18:40.909Z,3.58
2023-05-10T10:24:46.690Z,3.38
2023-05-10T10:27:55.217Z,3.60
2023-05-10T10:31:03.461Z,3.85
2023-05-10T10:34:14.093Z,3.35
2023-05-10T10:37:18.116Z,3.35
2023-05-10T10:40:34.655Z,3.10
2023-05-10T10:43:37.755Z,2.90
2023-05-10T10:47:00.408Z,3.17
2023-05-10T10:50:06.756Z,3.05
2023-05-10T10:53:15.111Z,2.80
2023-05-10T10:56:24.653Z,3.10
2023-05-10T10:59:30.117Z,2.80
2023-05-10T11:02:47.004Z,2.42
2023-05-10T11:05:52.337Z,3.10
2023-05-10T11:08:55.746Z,3.40
2023-05-10T11:11:59.396Z,3.15
2023-05-10T11:15:02.526Z,2.70
2023-05-10T11:18:30.991Z,2.95
2023-05-10T11:21:35.451Z,3.20
2023-05-10T11:24:38.296Z,2.85
2023-05-10T11:27:41.535Z,3.03
2023-05-10T11:30:45.481Z,2.83
2023-05-10T11:33:49.184Z,3.03
2023-05-10T11:36:54.891Z,2.92
2023-05-10T11:39:57.551Z,2.92
2023-05-10T11:43:00.483Z,2.80
2023-05-10T11:46:03.822Z,3.13
2023-05-10T11:49:08.596Z,2.70
2023-05-10T11:52:12.477Z,3.00
2023-05-10T11:55:15.047Z,2.97
2023-05-10T11:58:19.827Z,3.00
2023-05-10T12:01:24.170Z,2.70
2023-05-10T12:04:27.745Z,2.70
2023-05-10T12:07:30.573Z,2.80
2023-05-10T12:10:35.894Z,2.83
2023-05-10T12:13:42.274Z,17.15
2023-05-10T12:16:44.847Z,3.45
2023-05-10T12:19:49.680Z,3.22
2023-05-10T12:22:59.662Z,2.70
2023-05-10T12:29:21.384Z,2.80
2023-05-10T12:32:41.914Z,2.65
2023-05-10T12:35:45.744Z,2.60
2023-05-10T12:38:49.126Z,6.90
2023-05-10T12:41:52.312Z,3.00
2023-05-10T12:44:58.553Z,2.70
2023-05-10T12:48:01.151Z,2.88
2023-05-10T12:51:05.987Z,2.60
2023-05-10T12:54:09.614Z,3.10
2023-05-10T12:57:12.097Z,2.40
2023-05-10T13:00:16.138Z,2.53
2023-05-10T13:03:19.909Z,2.40
2023-05-10T13:06:22.457Z,2.40
2023-05-10T13:09:30.709Z,2.35
2023-05-10T13:12:33.385Z,2.20
2023-05-10T13:15:36.193Z,2.33
2023-05-10T13:18:38.717Z,2.10
2023-05-10T13:21:45.282Z,2.10
2023-05-10T13:24:48.284Z,2.38
2023-05-10T13:27:53.311Z,2.63
2023-05-10T13:30:55.955Z,2.97
2023-05-10T13:33:58.445Z,2.33
2023-05-10T13:37:00.932Z,2.30
2023-05-10T13:40:05.493Z,2.35
2023-05-10T13:43:08.104Z,2.30
2023-05-10T13:46:11.810Z,2.40
2023-05-10T13:49:14.386Z,2.33
2023-05-10T13:52:17.056Z,2.45
2023-05-10T13:55:19.837Z,2.28
2023-05-10T13:58:22.812Z,2.20
2023-05-10T14:01:25.883Z,2.08
2023-05-10T14:04:28.411Z,2.30
2023-05-10T14:07:31.782Z,2.75
2023-05-10T14:10:34.397Z,2.25
2023-05-10T14:13:38.227Z,2.58
2023-05-10T14:16:45.438Z,2.08
2023-05-10T14:19:48.103Z,2.58
2023-05-10T14:22:50.886Z,1.90
2023-05-10T14:25:53.908Z,2.00
2023-05-10T14:28:56.585Z,1.85
2023-05-10T14:31:59.183Z,2.33
2023-05-10T14:35:01.690Z,2.28
2023-05-10T14:38:04.746Z,2.85
2023-05-10T14:41:07.911Z,2.13
2023-05-10T14:44:11.578Z,2.20
2023-05-10T14:47:14.286Z,2.40
2023-05-10T14:50:32.362Z,3.95
2023-05-10T14:53:38.134Z,4.82
2023-05-10T14:56:42.439Z,2.15
2023-05-10T14:59:44.942Z,2.30
2023-05-10T15:02:49.154Z,2.00
2023-05-10T15:05:53.054Z,2.13
2023-05-10T15:08:55.572Z,2.10
2023-05-10T15:11:58.043Z,1.83
2023-05-10T15:15:00.636Z,2.20
2023-05-10T15:18:05.529Z,2.00
2023-05-10T15:21:08.042Z,2.05
2023-05-10T15:24:10.698Z,2.60
2023-05-10T15:27:13.379Z,2.30
2023-05-10T15:30:16.108Z,2.00
2023-05-10T15:33:18.850Z,2.08
2023-05-10T15:36:21.892Z,3.47
2023-05-10T15:39:25.008Z,3.05
2023-05-10T15:42:28.015Z,2.30
2023-05-10T15:45:30.700Z,2.30
2023-05-10T15:48:33.385Z,1.90
2023-05-10T15:51:36.726Z,2.08
2023-05-10T15:54:39.911Z,1.90
2023-05-10T15:57:43.888Z,2.13
2023-05-10T16:00:47.196Z,2.35
2023-05-10T16:03:50.019Z,2.20
2023-05-10T16:06:52.831Z,2.70
2023-05-10T16:09:55.612Z,2.40
2023-05-10T16:13:01.465Z,2.85
2023-05-10T16:16:05.248Z,2.65
2023-05-10T16:19:10.252Z,2.60
2023-05-10T16:22:13.541Z,2.40
2023-05-10T16:25:16.726Z,2.30
2023-05-10T16:28:21.549Z,2.40
2023-05-10T16:31:24.643Z,2.17
2023-05-10T16:34:27.662Z,2.42
2023-05-10T16:37:30.449Z,2.40
2023-05-10T16:40:35.761Z,2.40
2023-05-10T16:43:38.395Z,2.75
2023-05-10T16:46:41.059Z,2.67
2023-05-10T16:49:43.646Z,2.65
2023-05-10T16:52:46.486Z,2.58
2023-05-10T16:55:49.168Z,2.75
2023-05-10T16:58:54.072Z,2.47
2023-05-10T17:01:56.739Z,2.88
2023-05-10T17:04:59.691Z,3.20
2023-05-10T17:08:02.358Z,3.00
2023-05-10T17:11:05.286Z,2.85
2023-05-10T17:14:08.688Z,3.10
2023-05-10T17:17:11.541Z,3.20
2023-05-10T17:20:14.128Z,3.25
2023-05-10T17:23:16.962Z,3.10
2023-05-10T17:26:19.541Z,2.90
2023-05-10T17:29:22.242Z,2.70
2023-05-10T17:32:27.589Z,2.95
2023-05-10T17:35:31.513Z,3.60
2023-05-10T17:38:34.165Z,3.35
2023-05-10T17:41:36.898Z,3.13
2023-05-10T17:44:39.858Z,3.00
2023-05-10T17:47:43.163Z,3.03
2023-05-10T17:50:45.774Z,3.00
2023-05-10T17:53:48.766Z,3.38
2023-05-10T17:56:52.853Z,3.10
2023-05-10T17:59:56.006Z,3.00
2023-05-10T18:02:59.055Z,3.25
2023-05-10T18:06:05.563Z,3.15
2023-05-10T18:09:08.562Z,3.65
2023-05-10T18:12:13.573Z,3.45
2023-05-10T18:15:17.370Z,4.28
2023-05-10T18:18:20.668Z,4.00
2023-05-10T18:21:23.864Z,3.00
2023-05-10T18:24:38.306Z,2.70
2023-05-10T18:27:45.164Z,3.08
2023-05-10T18:30:48.712Z,11.65
2023-05-10T18:33:52.421Z,9.65
2023-05-10T18:36:56.588Z,3.60
2023-05-10T18:40:00.880Z,3.85
2023-05-10T18:43:05.544Z,3.08
2023-05-10T18:46:11.238Z,2.90
2023-05-10T18:49:19.796Z,3.03
2023-05-10T18:52:23.500Z,3.03
2023-05-10T18:55:28.419Z,3.25
2023-05-10T18:58:32.700Z,2.97
2023-05-10T19:01:38.252Z,3.38
2023-05-10T19:04:43.447Z,3.00
2023-05-10T19:10:52.825Z,3.10
2023-05-10T19:14:00.190Z,4.32
2023-05-10T19:17:07.693Z,5.70
2023-05-10T19:20:12.565Z,3.50
2023-05-10T19:23:16.637Z,3.05
2023-05-10T19:26:22.940Z,3.50
2023-05-10T19:29:27.621Z,3.03
2023-05-10T19:32:31.594Z,3.08
2023-05-10T19:35:39.732Z,2.80
2023-05-10T19:38:45.652Z,3.38
2023-05-10T19:41:50.304Z,2.97
2023-05-10T19:44:53.994Z,2.90
2023-05-10T19:47:59.528Z,3.15
2023-05-10T19:51:07.001Z,2.80
2023-05-10T19:54:12.011Z,2.72
2023-05-10T19:57:15.632Z,2.88
2023-05-10T20:00:19.607Z,2.92
2023-05-10T20:03:23.574Z,3.33
2023-05-10T20:06:27.545Z,2.78
2023-05-10T20:09:31.457Z,3.10
2023-05-10T20:12:34.866Z,2.90
2023-05-10T20:15:38.648Z,3.20
2023-05-10T20:18:42.508Z,2.92
2023-05-10T20:21:45.541Z,4.30
2023-05-10T20:24:48.706Z,4.40
2023-05-10T20:30:57.045Z,2.50
2023-05-10T20:34:02.348Z,2.80
2023-05-10T20:37:06.358Z,2.95
2023-05-10T20:40:10.300Z,2.65
2023-05-10T20:43:13.977Z,2.63
2023-05-10T20:46:17.592Z,2.80
2023-05-10T20:49:21.034Z,2.75
2023-05-10T20:52:24.674Z,2.85
2023-05-10T20:55:28.378Z,2.95
2023-05-10T20:58:31.183Z,2.50
2023-05-10T21:01:33.898Z,2.83
2023-05-10T21:04:37.023Z,2.70
2023-05-10T21:07:39.967Z,2.97
2023-05-10T21:10:42.711Z,2.90
2023-05-10T21:13:45.276Z,2.65
2023-05-10T21:16:47.991Z,2.88
2023-05-10T21:19:51.864Z,2.75
2023-05-10T21:22:54.476Z,3.00
2023-05-10T21:26:00.978Z,2.83
2023-05-10T21:29:04.947Z,2.83
2023-05-10T21:32:07.938Z,2.92
2023-05-10T21:35:10.726Z,2.85
2023-05-10T21:38:16.183Z,2.78
2023-05-10T21:41:18.887Z,3.00
2023-05-10T21:44:21.450Z,2.88
2023-05-10T21:47:24.018Z,2.60
2023-05-10T21:50:27.569Z,2.75
2023-05-10T21:53:30.358Z,3.25
2023-05-10T21:56:34.534Z,2.97
2023-05-10T21:59:37.246Z,2.80
2023-05-10T22:02:40.739Z,2.88
2023-05-10T22:05:44.049Z,2.72
2023-05-10T22:08:46.602Z,2.70
2023-05-10T22:11:49.845Z,2.63
2023-05-10T22:15:09.466Z,3.03
2023-05-10T22:18:13.447Z,2.90
2023-05-10T22:21:16.056Z,2.83
2023-05-10T22:24:21.230Z,2.97
2023-05-10T22:27:23.901Z,2.92
2023-05-10T22:30:26.725Z,2.80
2023-05-10T22:33:29.631Z,2.88
2023-05-10T22:36:32.480Z,3.05
2023-05-10T22:39:38.118Z,3.47
2023-05-10T22:42:40.779Z,2.88
2023-05-10T22:45:43.544Z,3.22
2023-05-10T22:48:46.280Z,3.35
2023-05-10T22:51:49.045Z,3.08
2023-05-10T22:54:51.721Z,3.05
2023-05-10T22:57:54.508Z,3.15
2023-05-10T23:00:57.119Z,3.17
2023-05-10T23:03:59.774Z,3.10
2023-05-10T23:07:03.392Z,2.97
2023-05-10T23:10:06.584Z,3.58
2023-05-10T23:13:09.373Z,3.50
2023-05-10T23:16:12.186Z,2.83
2023-05-10T23:19:17.104Z,3.35
2023-05-10T23:22:19.835Z,3.40
2023-05-10T23:25:22.820Z,3.15
2023-05-10T23:28:25.351Z,2.92
2023-05-10T23:31:28.101Z,3.10
2023-05-10T23:34:31.447Z,2.97
2023-05-10T23:37:33.997Z,3.95
2023-05-10T23:40:36.696Z,2.83
2023-05-10T23:43:39.410Z,3.17
2023-05-10T23:46:43.761Z,3.13
2023-05-10T23:49:46.349Z,3.47
2023-05-10T23:52:48.951Z,3.70
2023-05-10T23:55:51.625Z,3.20
2023-05-10T23:58:54.069Z,3.00
